Autaugaville, Alabama
Current Conditions -  °F | °C
As of 6:15 AM on Friday 28 Nov 2014 (Local Time) from K1A9 Reporting Station
Clear Clear  
Wind Chill: -1°   Ceiling: Unl
Heat Index: -1°   Visibility: 10mi
Dew Point: -3°   Wind: 0mph
Humidity: 87%   Direction: NA
Pressure: 30.42"   Gusts: NA
Location:  32.43°N, 86.65°W
Report Text: K1A9 281215Z AUTO 00000KT 10SM CLR M01/M03 A3042 RMK AO2 T10071026
Loading
Personal Weather Stations






























Interactive Weather Map New forecast layout! Learn more

10-Day Weather Forecast

Advertisements
Track Severe Weather on mobile